Time;durP1;ratioP1;P1;durP2;ratioP2;P2;SDS_P1;SDS_P2;PMS_P1;PMS_P2;Temp;Humidity;BMP_temperature;BMP_pressure;BME280_temperature;BME280_humidity;BME280_pressure;Samples;Min_cycle;Max_cycle;Signal;HPM_P1;HPM_P2
2023/05/03 00:01:36;;;;;;;3.40;3.10;;;13.50;39.60;;;;;;10397187;28;20248;-75
2023/05/03 00:06:40;;;;;;;3.50;3.30;;;13.30;39.60;;;;;;10399100;28;20238;-74
2023/05/03 00:11:44;;;;;;;3.40;3.20;;;13.20;40.00;;;;;;10403387;28;20902;-75
2023/05/03 00:16:47;;;;;;;2.20;2.10;;;13.20;40.00;;;;;;10415266;28;20236;-74
2023/05/03 00:21:51;;;;;;;2.53;2.37;;;13.10;40.00;;;;;;10371975;28;20233;-72
2023/05/03 00:26:55;;;;;;;2.80;2.60;;;13.00;40.20;;;;;;10366531;28;20234;-72
2023/05/03 00:31:59;;;;;;;3.00;2.80;;;13.00;40.30;;;;;;10367540;28;20230;-72
2023/05/03 00:37:02;;;;;;;3.53;3.23;;;13.00;40.30;;;;;;10364890;28;20241;-72
2023/05/03 00:42:07;;;;;;;3.33;3.03;;;12.90;40.00;;;;;;10366450;28;20245;-72
2023/05/03 00:47:10;;;;;;;3.83;3.63;;;12.90;40.00;;;;;;10365883;28;20249;-72
2023/05/03 00:52:15;;;;;;;3.40;3.20;;;12.90;39.90;;;;;;10366293;28;20714;-71
2023/05/03 00:57:21;;;;;;;3.70;3.40;;;12.80;39.90;;;;;;10365398;28;20245;-72
2023/05/03 01:02:24;;;;;;;3.30;3.00;;;12.70;40.20;;;;;;10365705;28;20232;-71
2023/05/03 01:07:38;;;;;;;3.00;2.80;;;12.70;40.00;;;;;;10365234;28;20284;-72
2023/05/03 01:12:53;;;;;;;3.10;2.90;;;12.60;40.20;;;;;;10365613;28;20237;-72
2023/05/03 01:18:00;;;;;;;3.30;3.10;;;12.60;40.40;;;;;;10365184;28;20919;-72
2023/05/03 01:23:11;;;;;;;3.10;2.90;;;12.60;40.30;;;;;;10364956;28;20284;-72
2023/05/03 01:28:15;;;;;;;3.00;2.20;;;12.60;40.20;;;;;;10364380;28;20230;-72
2023/05/03 01:33:26;;;;;;;4.43;4.03;;;12.60;40.10;;;;;;10364919;28;20313;-71
2023/05/03 01:38:33;;;;;;;6.83;4.33;;;12.60;40.30;;;;;;10364111;28;20601;-72
2023/05/03 01:43:38;;;;;;;5.03;3.53;;;12.60;40.00;;;;;;10364282;28;20229;-72
2023/05/03 01:48:41;;;;;;;8.50;4.20;;;12.50;40.10;;;;;;10363910;28;20218;-72
2023/05/03 01:53:45;;;;;;;4.83;4.43;;;12.50;40.00;;;;;;10364463;28;20694;-71
2023/05/03 01:58:49;;;;;;;4.97;4.57;;;12.50;39.90;;;;;;10363759;28;20233;-72
2023/05/03 02:03:52;;;;;;;6.33;4.93;;;12.40;39.90;;;;;;10362823;28;20230;-72
2023/05/03 02:08:56;;;;;;;5.57;5.17;;;12.30;39.60;;;;;;10362755;28;20234;-72
2023/05/03 02:14:00;;;;;;;4.90;4.60;;;12.20;39.80;;;;;;10362295;28;20238;-72
2023/05/03 02:19:04;;;;;;;3.97;3.63;;;12.00;39.90;;;;;;10361962;28;20698;-71
2023/05/03 02:24:07;;;;;;;3.20;3.00;;;11.90;39.70;;;;;;10361931;28;20250;-71
2023/05/03 02:29:12;;;;;;;4.33;3.27;;;11.80;39.90;;;;;;10362651;28;20776;-72
2023/05/03 02:34:15;;;;;;;11.90;3.13;;;11.80;40.10;;;;;;10362194;28;20261;-71
2023/05/03 02:39:18;;;;;;;4.13;3.10;;;11.70;39.70;;;;;;10362142;28;20238;-71
2023/05/03 02:44:22;;;;;;;3.67;3.37;;;11.60;40.00;;;;;;10361727;28;20241;-71
2023/05/03 02:49:25;;;;;;;3.20;3.00;;;11.50;40.30;;;;;;10361993;28;20230;-71
2023/05/03 02:54:28;;;;;;;3.13;2.93;;;11.40;40.30;;;;;;10361665;28;20281;-71
2023/05/03 02:59:33;;;;;;;4.07;3.67;;;11.40;40.30;;;;;;10361901;28;20234;-71
2023/05/03 03:04:36;;;;;;;4.13;3.80;;;11.40;40.50;;;;;;10368955;28;20233;-71
2023/05/03 03:09:39;;;;;;;3.10;2.90;;;11.40;40.10;;;;;;10369149;28;20706;-71
2023/05/03 03:14:44;;;;;;;21.73;3.40;;;11.30;40.10;;;;;;10368380;28;20281;-71
2023/05/03 03:19:47;;;;;;;2.80;2.63;;;11.30;40.30;;;;;;10368602;28;20229;-70
2023/05/03 03:24:50;;;;;;;47.03;3.73;;;11.20;40.10;;;;;;10368010;28;20600;-71
2023/05/03 03:29:55;;;;;;;2.93;2.63;;;11.20;40.30;;;;;;10367793;28;20227;-71
2023/05/03 03:34:58;;;;;;;3.30;3.10;;;11.10;40.70;;;;;;10367098;28;20257;-71
2023/05/03 03:40:01;;;;;;;2.60;2.50;;;11.10;40.60;;;;;;10367613;28;20242;-71
2023/05/03 03:45:07;;;;;;;2.60;2.40;;;11.10;40.50;;;;;;10366461;28;20708;-71
2023/05/03 03:50:11;;;;;;;2.87;2.67;;;11.10;40.70;;;;;;10367191;28;20804;-71
2023/05/03 03:55:14;;;;;;;2.53;2.43;;;11.10;40.30;;;;;;10366973;28;20240;-71
2023/05/03 04:00:19;;;;;;;2.30;2.20;;;11.10;40.20;;;;;;10366065;28;20234;-71
2023/05/03 04:05:22;;;;;;;3.60;3.40;;;11.00;40.40;;;;;;10365656;28;20245;-71
2023/05/03 04:10:25;;;;;;;3.10;2.80;;;11.00;40.70;;;;;;10365295;28;20654;-71
2023/05/03 04:15:30;;;;;;;6.17;5.03;;;11.00;40.80;;;;;;10365690;28;20234;-71
2023/05/03 04:20:33;;;;;;;5.70;5.10;;;10.90;40.70;;;;;;10366206;28;20238;-71
2023/05/03 04:25:37;;;;;;;6.50;5.90;;;11.00;40.80;;;;;;10365372;28;20235;-71
2023/05/03 04:30:43;;;;;;;13.47;6.20;;;11.00;40.80;;;;;;10365723;28;20661;-71
2023/05/03 04:35:50;;;;;;;5.27;4.77;;;10.90;40.70;;;;;;10365078;28;20273;-71
2023/05/03 04:40:53;;;;;;;4.60;4.20;;;10.90;40.70;;;;;;10365141;28;20341;-71
2023/05/03 04:45:57;;;;;;;4.00;3.70;;;10.80;40.60;;;;;;10364560;28;20242;-71
2023/05/03 04:51:01;;;;;;;3.83;3.53;;;10.80;40.60;;;;;;10365397;28;20753;-71
2023/05/03 04:56:04;;;;;;;3.50;3.20;;;10.80;40.60;;;;;;10365283;28;20238;-71
2023/05/03 05:01:09;;;;;;;4.13;3.83;;;10.80;40.60;;;;;;10364203;28;20230;-71
2023/05/03 05:06:12;;;;;;;8.57;4.60;;;10.90;40.70;;;;;;10363555;28;20264;-71
2023/05/03 05:11:16;;;;;;;6.23;5.63;;;10.90;40.70;;;;;;10363519;28;20328;-71
2023/05/03 05:16:20;;;;;;;8.30;7.50;;;10.90;40.70;;;;;;10363214;28;20246;-71
2023/05/03 05:21:24;;;;;;;5.00;4.60;;;10.90;40.80;;;;;;10365075;28;20228;-72
2023/05/03 05:26:27;;;;;;;5.27;4.80;;;10.90;40.80;;;;;;10405602;28;20229;-73
2023/05/03 05:31:33;;;;;;;4.67;4.37;;;11.00;42.30;;;;;;10412100;28;20240;-75
2023/05/03 05:36:37;;;;;;;5.23;4.80;;;11.10;42.30;;;;;;10386935;28;20234;-74
2023/05/03 05:41:40;;;;;;;5.20;4.80;;;11.20;41.90;;;;;;10378125;28;20245;-72
2023/05/03 05:46:45;;;;;;;5.53;5.13;;;11.30;41.90;;;;;;10392673;28;20237;-74
2023/05/03 05:51:51;;;;;;;5.50;5.10;;;11.30;42.40;;;;;;10381082;28;20280;-73
2023/05/03 05:56:54;;;;;;;5.63;5.20;;;11.40;42.30;;;;;;10418676;28;20239;-73
2023/05/03 06:01:59;;;;;;;5.57;5.17;;;11.40;42.50;;;;;;10404778;28;20236;-73
2023/05/03 06:07:02;;;;;;;5.83;5.33;;;11.50;43.20;;;;;;10388087;28;20230;-74
2023/05/03 06:12:05;;;;;;;7.50;6.90;;;11.60;43.00;;;;;;10404211;28;20690;-73
2023/05/03 06:17:10;;;;;;;8.07;7.37;;;11.70;43.20;;;;;;10384847;28;20237;-74
2023/05/03 06:22:13;;;;;;;8.77;8.00;;;11.90;43.80;;;;;;10375054;28;20321;-74
2023/05/03 06:27:16;;;;;;;7.93;7.33;;;12.00;43.50;;;;;;10382204;28;20275;-73
2023/05/03 06:32:22;;;;;;;8.43;7.73;;;12.10;43.60;;;;;;10387010;28;20230;-73
2023/05/03 06:37:26;;;;;;;8.57;7.80;;;12.20;44.00;;;;;;10387938;28;20292;-73
2023/05/03 06:42:29;;;;;;;7.77;7.17;;;12.30;43.70;;;;;;10393152;28;20231;-73
2023/05/03 06:47:35;;;;;;;8.30;7.37;;;12.40;43.70;;;;;;10391236;28;20613;-73
2023/05/03 06:52:40;;;;;;;8.77;8.07;;;12.50;45.00;;;;;;10390037;28;20583;-73
2023/05/03 06:57:43;;;;;;;8.07;7.47;;;12.70;44.20;;;;;;10400578;28;20271;-73
2023/05/03 07:02:48;;;;;;;8.20;7.50;;;12.90;44.20;;;;;;10401357;28;20707;-73
2023/05/03 07:07:51;;;;;;;9.40;8.60;;;13.00;44.70;;;;;;10385494;28;20241;-73
2023/05/03 07:12:54;;;;;;;8.77;8.07;;;13.20;44.40;;;;;;10384232;28;20262;-74
2023/05/03 07:17:59;;;;;;;9.50;8.60;;;13.30;44.40;;;;;;10383734;28;20632;-74
2023/05/03 07:23:02;;;;;;;10.33;8.27;;;13.50;44.70;;;;;;10393654;28;20317;-74
2023/05/03 07:28:05;;;;;;;10.20;9.30;;;13.60;44.50;;;;;;10376467;28;20317;-74
2023/05/03 07:33:10;;;;;;;9.97;9.17;;;13.80;44.80;;;;;;10378611;28;20273;-74
2023/05/03 07:38:13;;;;;;;9.57;8.77;;;14.00;45.10;;;;;;10387876;28;20762;-74
2023/05/03 07:43:18;;;;;;;9.10;8.30;;;14.20;44.80;;;;;;10385821;28;20236;-74
2023/05/03 07:48:22;;;;;;;9.43;8.73;;;14.30;44.40;;;;;;10381643;28;22458;-74
2023/05/03 07:53:26;;;;;;;9.53;8.73;;;14.50;44.60;;;;;;10386396;28;20244;-74
2023/05/03 07:58:29;;;;;;;9.17;8.43;;;14.70;44.10;;;;;;10385657;28;20230;-74
2023/05/03 08:03:44;;;;;;;10.10;9.30;;;14.80;44.20;;;;;;10384323;28;20589;-74
2023/05/03 08:08:47;;;;;;;9.67;8.87;;;14.90;44.30;;;;;;10386721;28;20585;-74
2023/05/03 08:13:50;;;;;;;9.00;8.30;;;15.00;44.30;;;;;;10387402;28;20218;-74
2023/05/03 08:18:55;;;;;;;9.77;8.97;;;15.20;44.50;;;;;;10391216;28;20725;-74
2023/05/03 08:23:58;;;;;;;10.10;9.30;;;15.30;44.60;;;;;;10377719;28;20242;-74
2023/05/03 08:29:02;;;;;;;10.03;9.23;;;15.40;44.40;;;;;;10433832;22;20712;-67
2023/05/03 08:34:09;;;;;;;9.90;9.00;;;15.40;44.20;;;;;;10481171;28;20230;-67
2023/05/03 08:39:14;;;;;;;10.43;9.53;;;15.50;44.10;;;;;;10477396;28;20236;-67
2023/05/03 08:44:22;;;;;;;9.83;9.13;;;15.60;44.10;;;;;;10477544;28;20239;-67
2023/05/03 08:49:28;;;;;;;9.80;9.00;;;15.70;44.20;;;;;;10481457;28;20286;-67
2023/05/03 08:54:31;;;;;;;9.23;8.43;;;15.80;44.00;;;;;;10478795;28;20224;-67
2023/05/03 08:59:34;;;;;;;9.17;8.47;;;15.90;43.70;;;;;;10479297;28;20708;-67
2023/05/03 09:04:39;;;;;;;10.33;9.50;;;16.00;43.60;;;;;;10477176;28;20233;-67
2023/05/03 09:09:42;;;;;;;10.70;9.80;;;16.10;43.60;;;;;;10479615;28;20285;-67
2023/05/03 09:14:49;;;;;;;9.67;8.87;;;16.10;43.70;;;;;;10481730;28;20224;-67
2023/05/03 09:19:55;;;;;;;9.43;8.73;;;16.20;43.50;;;;;;10475945;28;20232;-67
2023/05/03 09:24:59;;;;;;;9.67;8.90;;;16.30;43.30;;;;;;10477714;28;20232;-67
2023/05/03 09:30:18;;;;;;;10.07;9.23;;;16.40;43.30;;;;;;10478072;28;20232;-67
2023/05/03 09:35:23;;;;;;;9.70;8.90;;;16.50;43.00;;;;;;10476639;28;20231;-67
2023/05/03 09:40:26;;;;;;;9.00;8.30;;;16.60;42.80;;;;;;10478439;28;20235;-67
2023/05/03 09:45:30;;;;;;;9.33;8.53;;;16.70;43.00;;;;;;10475647;28;20237;-67
2023/05/03 09:50:36;;;;;;;8.50;7.90;;;16.80;42.90;;;;;;10478340;28;20299;-67
2023/05/03 09:55:40;;;;;;;8.80;8.10;;;16.90;42.30;;;;;;10478246;28;20221;-67
2023/05/03 10:00:45;;;;;;;8.23;7.53;;;17.00;42.30;;;;;;10480105;28;20235;-67
2023/05/03 10:05:51;;;;;;;7.80;7.20;;;17.10;42.40;;;;;;10475593;28;20579;-67
2023/05/03 10:10:54;;;;;;;6.83;6.30;;;17.30;42.00;;;;;;10479100;28;20766;-67
2023/05/03 10:16:05;;;;;;;7.47;6.97;;;17.40;41.90;;;;;;10486579;28;20965;-67
2023/05/03 10:21:16;;;;;;;8.00;7.27;;;17.60;41.50;;;;;;10484480;28;20228;-68
2023/05/03 10:26:21;;;;;;;8.20;7.60;;;17.70;41.10;;;;;;10486419;28;20228;-67
2023/05/03 10:31:49;;;;;;;8.17;7.47;;;17.80;41.50;;;;;;10481908;28;20220;-67
2023/05/03 10:36:54;;;;;;;7.87;7.27;;;17.80;40.80;;;;;;10470903;28;20275;-67
2023/05/03 10:41:59;;;;;;;7.40;6.90;;;17.90;41.70;;;;;;10483934;28;20229;-67
2023/05/03 10:47:11;;;;;;;7.17;6.57;;;18.10;41.60;;;;;;10484856;28;20235;-70
2023/05/03 10:52:47;;;;;;;7.10;6.50;;;18.20;41.60;;;;;;10487020;28;20228;-70
2023/05/03 10:57:53;;;;;;;6.80;6.30;;;18.30;41.00;;;;;;10473221;28;20270;-67
2023/05/03 11:03:26;;;;;;;6.67;6.17;;;18.30;40.60;;;;;;10472164;28;20647;-67
2023/05/03 11:08:36;;;;;;;6.13;5.73;;;18.40;40.10;;;;;;10450573;28;21100;-67
2023/05/03 11:13:39;;;;;;;6.83;6.33;;;18.40;40.40;;;;;;10473896;28;20294;-67
2023/05/03 11:18:42;;;;;;;6.63;6.13;;;18.40;40.60;;;;;;10471260;28;20228;-67
2023/05/03 11:23:47;;;;;;;6.70;6.20;;;18.60;41.10;;;;;;10470318;28;20817;-67
2023/05/03 11:28:50;;;;;;;6.53;6.03;;;18.70;40.90;;;;;;10469027;28;20601;-68
2023/05/03 11:33:53;;;;;;;6.53;6.03;;;18.90;40.80;;;;;;10469896;28;20235;-67
2023/05/03 11:38:58;;;;;;;6.57;5.97;;;19.00;40.40;;;;;;10474287;28;20236;-68
2023/05/03 11:44:02;;;;;;;5.87;5.47;;;19.10;39.60;;;;;;10467743;28;20231;-68
2023/05/03 11:49:18;;;;;;;6.37;5.87;;;19.20;39.80;;;;;;10470401;28;20225;-68
2023/05/03 11:54:24;;;;;;;5.33;4.83;;;19.30;39.50;;;;;;10469422;28;20604;-68
2023/05/03 11:59:37;;;;;;;5.40;4.97;;;19.30;39.20;;;;;;10473875;28;20232;-68
2023/05/03 12:04:42;;;;;;;5.87;5.37;;;19.50;38.00;;;;;;10471524;28;20394;-68
2023/05/03 12:09:49;;;;;;;5.67;5.27;;;19.70;39.20;;;;;;10470577;28;20232;-68
2023/05/03 12:15:09;;;;;;;5.57;5.10;;;19.80;38.60;;;;;;10469782;28;20228;-69
2023/05/03 12:20:16;;;;;;;5.33;5.03;;;19.90;38.40;;;;;;10471465;28;20232;-68
2023/05/03 12:25:40;;;;;;;5.97;5.47;;;19.90;38.10;;;;;;10470670;28;20314;-68
2023/05/03 12:30:47;;;;;;;5.13;4.77;;;19.90;37.20;;;;;;10469778;28;20696;-68
2023/05/03 12:35:50;;;;;;;5.27;4.90;;;20.00;37.70;;;;;;10470654;28;20236;-69
2023/05/03 12:40:58;;;;;;;4.33;4.03;;;20.00;37.20;;;;;;10471298;28;20260;-68
2023/05/03 12:46:01;;;;;;;4.37;4.07;;;20.00;36.50;;;;;;10467879;28;20259;-68
2023/05/03 12:51:26;;;;;;;4.70;4.13;;;20.00;37.20;;;;;;10471324;28;20244;-68
2023/05/03 12:56:34;;;;;;;4.47;4.17;;;20.10;36.80;;;;;;10468468;28;20556;-68
2023/05/03 13:01:42;;;;;;;4.20;3.90;;;20.20;36.70;;;;;;10471594;28;20260;-68
2023/05/03 13:06:49;;;;;;;4.40;4.00;;;20.30;36.80;;;;;;10466874;28;20228;-68
2023/05/03 13:12:02;;;;;;;5.10;4.40;;;20.40;36.80;;;;;;10468446;28;20315;-68
2023/05/03 13:17:06;;;;;;;4.50;4.20;;;20.50;36.40;;;;;;10468502;28;20228;-68
2023/05/03 13:22:10;;;;;;;4.67;4.00;;;20.50;36.50;;;;;;10468590;28;20236;-69
2023/05/03 13:27:15;;;;;;;3.83;3.63;;;20.60;36.50;;;;;;10468214;28;20235;-73
2023/05/03 13:32:18;;;;;;;3.90;3.60;;;20.70;35.60;;;;;;10469098;28;20304;-68
2023/05/03 13:37:21;;;;;;;3.97;3.67;;;20.80;35.70;;;;;;10466186;28;20235;-68
2023/05/03 13:42:26;;;;;;;3.93;3.70;;;20.80;35.60;;;;;;10467035;28;20229;-68
2023/05/03 13:47:30;;;;;;;3.50;3.20;;;20.70;34.50;;;;;;10468238;28;20235;-68
2023/05/03 13:52:54;;;;;;;3.23;3.03;;;20.80;35.10;;;;;;10467109;28;20259;-68
2023/05/03 13:57:58;;;;;;;3.73;3.50;;;20.80;34.70;;;;;;10464644;28;20229;-68
2023/05/03 14:03:02;;;;;;;3.20;3.00;;;20.80;34.20;;;;;;10465761;28;20239;-72
2023/05/03 14:08:05;;;;;;;3.30;3.10;;;20.90;34.90;;;;;;10466765;28;20233;-68
2023/05/03 14:13:10;;;;;;;3.50;3.30;;;21.00;34.50;;;;;;10465497;28;20243;-68
2023/05/03 14:18:13;;;;;;;3.33;3.13;;;21.10;34.00;;;;;;10463539;28;20232;-68
2023/05/03 14:23:16;;;;;;;4.33;3.93;;;21.20;34.40;;;;;;10465987;28;20228;-68
2023/05/03 14:28:21;;;;;;;4.07;3.77;;;21.30;34.40;;;;;;10463704;28;20224;-68
2023/05/03 14:33:24;;;;;;;3.53;3.23;;;21.30;33.40;;;;;;10463707;28;20830;-68
2023/05/03 14:38:28;;;;;;;4.23;3.37;;;21.40;34.10;;;;;;10463943;28;20232;-69
2023/05/03 14:43:32;;;;;;;3.40;3.20;;;21.40;33.80;;;;;;10467331;28;20234;-68
2023/05/03 14:48:36;;;;;;;3.70;3.40;;;21.40;32.90;;;;;;10466720;28;20221;-68
2023/05/03 14:53:40;;;;;;;3.40;3.20;;;21.40;33.20;;;;;;10463659;28;20228;-68
2023/05/03 14:58:44;;;;;;;3.50;3.30;;;21.40;33.10;;;;;;10472447;28;20224;-68
2023/05/03 15:03:48;;;;;;;3.13;2.93;;;21.40;31.70;;;;;;10475524;28;20231;-68
2023/05/03 15:08:51;;;;;;;3.53;3.23;;;21.40;32.80;;;;;;10474205;28;20227;-69
2023/05/03 15:13:55;;;;;;;3.00;2.80;;;21.40;33.20;;;;;;10472126;28;20251;-68
2023/05/03 15:19:00;;;;;;;3.60;3.40;;;21.40;32.10;;;;;;10473636;28;20246;-68
2023/05/03 15:24:03;;;;;;;3.00;2.80;;;21.50;32.00;;;;;;10472036;28;20246;-69
2023/05/03 15:29:08;;;;;;;2.83;2.63;;;21.60;32.60;;;;;;10473009;28;20918;-69
2023/05/03 15:34:11;;;;;;;3.20;2.90;;;21.70;31.40;;;;;;10470965;28;20232;-68
2023/05/03 15:39:14;;;;;;;2.90;2.70;;;21.70;31.90;;;;;;10473409;28;20650;-68
2023/05/03 15:44:19;;;;;;;3.77;3.33;;;21.80;31.60;;;;;;10472138;28;20225;-68
2023/05/03 15:49:22;;;;;;;3.10;2.90;;;21.90;30.80;;;;;;10465984;28;21004;-68
2023/05/03 15:54:26;;;;;;;3.53;3.23;;;21.90;31.40;;;;;;10467226;28;20227;-68
2023/05/03 15:59:30;;;;;;;2.93;2.73;;;21.90;30.70;;;;;;10470146;28;20239;-68
2023/05/03 16:04:35;;;;;;;2.97;2.77;;;21.80;30.40;;;;;;10467214;28;20243;-68
2023/05/03 16:09:39;;;;;;;3.20;3.00;;;21.80;31.10;;;;;;10469841;28;20327;-67
2023/05/03 16:14:43;;;;;;;3.10;2.90;;;21.80;31.00;;;;;;10467478;28;20748;-68
2023/05/03 16:19:46;;;;;;;3.17;2.97;;;22.00;30.00;;;;;;10469970;28;20232;-68
2023/05/03 16:24:50;;;;;;;2.97;2.77;;;22.00;30.50;;;;;;10467893;28;20232;-68
2023/05/03 16:29:54;;;;;;;3.50;3.17;;;22.00;30.50;;;;;;10468679;28;20255;-68
2023/05/03 16:34:57;;;;;;;2.93;2.73;;;22.00;30.00;;;;;;10468082;28;20903;-68
2023/05/03 16:40:04;;;;;;;3.00;2.80;;;22.00;30.60;;;;;;10467909;28;20232;-68
2023/05/03 16:45:09;;;;;;;3.20;2.90;;;22.00;30.70;;;;;;10467565;28;20273;-68
2023/05/03 16:50:13;;;;;;;3.33;2.73;;;22.00;30.00;;;;;;10466719;28;20239;-68
2023/05/03 16:55:21;;;;;;;2.90;2.70;;;22.00;30.90;;;;;;10465527;28;20224;-68
2023/05/03 17:00:26;;;;;;;2.83;2.63;;;22.00;29.50;;;;;;10466095;28;21086;-68
2023/05/03 17:05:31;;;;;;;2.97;2.70;;;22.00;29.80;;;;;;10464200;28;20236;-68
2023/05/03 17:10:37;;;;;;;2.93;2.43;;;21.90;30.00;;;;;;10466510;28;20605;-68
2023/05/03 17:15:41;;;;;;;2.83;2.70;;;21.90;30.00;;;;;;10467573;28;20281;-68
2023/05/03 17:20:45;;;;;;;2.77;2.57;;;21.80;29.80;;;;;;10465243;28;20216;-68
2023/05/03 17:25:48;;;;;;;3.90;3.60;;;21.90;30.40;;;;;;10465123;28;20337;-68
2023/05/03 17:30:53;;;;;;;4.10;3.67;;;21.90;30.00;;;;;;10466229;28;20223;-68
2023/05/03 17:35:59;;;;;;;3.40;3.20;;;21.90;29.30;;;;;;10466665;28;20314;-67
2023/05/03 17:41:06;;;;;;;3.43;3.17;;;22.00;29.80;;;;;;10465139;28;20224;-68
2023/05/03 17:46:12;;;;;;;3.40;3.20;;;22.00;28.80;;;;;;10464844;28;20240;-68
2023/05/03 17:51:16;;;;;;;3.30;3.10;;;21.90;28.80;;;;;;10465222;28;20275;-70
2023/05/03 17:56:20;;;;;;;3.70;3.43;;;21.90;29.40;;;;;;10466961;28;20220;-70
2023/05/03 18:01:25;;;;;;;3.10;2.90;;;21.80;29.20;;;;;;10456308;28;20223;-68
2023/05/03 18:06:28;;;;;;;3.63;3.43;;;21.70;29.00;;;;;;10464461;28;20665;-68
2023/05/03 18:11:31;;;;;;;4.20;3.80;;;21.70;29.30;;;;;;10466277;28;20225;-67
2023/05/03 18:16:36;;;;;;;3.70;3.40;;;21.60;29.20;;;;;;10461625;28;20869;-68
2023/05/03 18:21:39;;;;;;;3.37;3.17;;;21.60;29.20;;;;;;10468079;28;20815;-68
2023/05/03 18:26:43;;;;;;;3.57;3.27;;;21.40;29.20;;;;;;10465516;28;20289;-68
2023/05/03 18:31:48;;;;;;;7.33;3.37;;;21.30;29.20;;;;;;10470407;28;20231;-67
2023/05/03 18:36:51;;;;;;;3.50;2.90;;;21.20;29.00;;;;;;10471210;28;20281;-67
2023/05/03 18:41:54;;;;;;;3.10;2.90;;;21.00;29.40;;;;;;10471912;28;20243;-68
2023/05/03 18:46:59;;;;;;;3.60;3.30;;;20.90;29.40;;;;;;10473871;28;20232;-68
2023/05/03 18:52:04;;;;;;;2.87;2.60;;;20.80;29.30;;;;;;10470494;28;20224;-68
2023/05/03 18:57:07;;;;;;;2.90;2.70;;;20.70;29.60;;;;;;10480535;28;21110;-68
2023/05/03 19:02:13;;;;;;;2.77;2.57;;;20.60;29.70;;;;;;10479049;28;20239;-68
2023/05/03 19:07:16;;;;;;;3.10;2.90;;;20.50;29.60;;;;;;10481092;28;20734;-68
2023/05/03 19:12:19;;;;;;;4.37;3.70;;;20.40;29.80;;;;;;10486686;28;20248;-67
2023/05/03 19:17:24;;;;;;;4.10;3.70;;;20.20;29.60;;;;;;10482816;28;20255;-68
2023/05/03 19:22:27;;;;;;;4.03;3.73;;;20.10;29.40;;;;;;10482331;28;20240;-67
2023/05/03 19:27:30;;;;;;;3.87;3.27;;;20.00;29.50;;;;;;10481951;28;20232;-68
2023/05/03 19:32:37;;;;;;;4.20;3.90;;;19.80;29.70;;;;;;10484043;28;21200;-68
2023/05/03 19:37:42;;;;;;;4.37;4.00;;;19.60;29.40;;;;;;10482210;28;20315;-68
2023/05/03 19:42:45;;;;;;;4.00;3.70;;;19.50;29.50;;;;;;10482609;28;20303;-68
2023/05/03 19:47:50;;;;;;;4.80;3.80;;;19.40;29.80;;;;;;10480136;28;20224;-68
2023/05/03 19:52:53;;;;;;;3.20;3.00;;;19.20;29.60;;;;;;10484849;28;20224;-68
2023/05/03 19:57:56;;;;;;;4.00;3.70;;;19.20;29.90;;;;;;10480435;28;20231;-68
2023/05/03 20:03:01;;;;;;;4.40;4.10;;;19.00;29.80;;;;;;10482134;28;20253;-68
2023/05/03 20:08:05;;;;;;;4.33;3.93;;;19.00;29.90;;;;;;10476276;28;20315;-68
2023/05/03 20:13:08;;;;;;;4.70;4.30;;;18.80;30.00;;;;;;10472012;28;20228;-69
2023/05/03 20:18:12;;;;;;;4.20;3.90;;;18.70;29.70;;;;;;10471302;28;20234;-68
2023/05/03 20:23:16;;;;;;;6.43;4.00;;;18.60;29.90;;;;;;10472068;28;20228;-67
2023/05/03 20:28:19;;;;;;;4.00;3.60;;;18.50;30.00;;;;;;10474974;28;20235;-68
2023/05/03 20:33:23;;;;;;;4.37;4.07;;;18.40;30.20;;;;;;10475518;28;20729;-68
2023/05/03 20:38:27;;;;;;;5.20;4.80;;;18.30;30.30;;;;;;10470706;28;20241;-68
2023/05/03 20:43:30;;;;;;;5.07;4.53;;;18.20;30.20;;;;;;10474954;28;20228;-68
2023/05/03 20:48:34;;;;;;;5.00;4.40;;;18.10;30.20;;;;;;10473480;28;20232;-68
2023/05/03 20:53:38;;;;;;;4.37;4.03;;;17.90;30.30;;;;;;10473830;28;20239;-68
2023/05/03 20:58:41;;;;;;;4.47;4.00;;;17.80;30.30;;;;;;10475370;28;20228;-68
2023/05/03 21:03:45;;;;;;;5.60;5.20;;;17.70;30.50;;;;;;10470161;28;20224;-68
2023/05/03 21:08:48;;;;;;;5.93;5.53;;;17.60;30.10;;;;;;10470482;28;20305;-68
2023/05/03 21:13:52;;;;;;;5.07;4.67;;;17.30;30.00;;;;;;10474291;28;20220;-68
2023/05/03 21:18:56;;;;;;;5.40;5.00;;;16.90;30.20;;;;;;10474181;28;20228;-68
2023/05/03 21:23:59;;;;;;;5.73;5.23;;;16.70;30.70;;;;;;10470858;28;20231;-68
2023/05/03 21:29:02;;;;;;;5.83;5.43;;;16.60;30.80;;;;;;10471710;28;20231;-68
2023/05/03 21:34:07;;;;;;;5.10;4.70;;;16.50;30.90;;;;;;10470005;28;20224;-68
2023/05/03 21:39:10;;;;;;;6.73;4.03;;;16.40;31.10;;;;;;10472625;28;20228;-68
2023/05/03 21:44:14;;;;;;;4.63;4.30;;;16.30;31.30;;;;;;10469683;28;20220;-68
2023/05/03 21:49:19;;;;;;;4.53;4.13;;;16.30;31.40;;;;;;10471595;28;20243;-68
2023/05/03 21:54:22;;;;;;;6.67;5.23;;;16.20;31.50;;;;;;10467814;28;20231;-68
2023/05/03 21:59:25;;;;;;;4.60;4.30;;;16.10;31.30;;;;;;10474693;28;20232;-68
2023/05/03 22:04:30;;;;;;;4.93;4.60;;;16.10;31.40;;;;;;10476433;28;20235;-68
2023/05/03 22:09:33;;;;;;;5.70;4.70;;;16.00;31.60;;;;;;10492863;28;20762;-68
2023/05/03 22:14:36;;;;;;;5.30;4.90;;;16.00;31.80;;;;;;10490337;28;20220;-67
2023/05/03 22:19:41;;;;;;;4.47;4.17;;;15.90;31.90;;;;;;10490892;28;20761;-68
2023/05/03 22:24:44;;;;;;;4.67;4.37;;;15.90;32.10;;;;;;10492797;28;20234;-68
2023/05/03 22:29:47;;;;;;;5.00;4.60;;;15.80;31.80;;;;;;10490322;28;20232;-68
2023/05/03 22:34:51;;;;;;;4.23;3.90;;;15.80;31.80;;;;;;10493279;28;20860;-68
2023/05/03 22:39:54;;;;;;;5.33;4.83;;;15.70;32.20;;;;;;10489297;28;20775;-68
2023/05/03 22:44:58;;;;;;;3.90;3.60;;;15.60;31.90;;;;;;10490607;28;20224;-67
2023/05/03 22:50:02;;;;;;;6.43;4.30;;;15.50;32.00;;;;;;10489378;28;20588;-68
2023/05/03 22:55:07;;;;;;;4.27;3.83;;;15.50;32.30;;;;;;10486753;28;20243;-68
2023/05/03 23:00:11;;;;;;;5.30;4.50;;;15.50;32.30;;;;;;10484991;28;20251;-68
2023/05/03 23:05:15;;;;;;;4.30;3.93;;;15.40;32.20;;;;;;10485913;28;20231;-68
2023/05/03 23:10:19;;;;;;;4.73;4.33;;;15.30;32.30;;;;;;10492001;28;20231;-69
2023/05/03 23:15:22;;;;;;;5.10;4.37;;;15.20;32.30;;;;;;10487897;28;20232;-68
2023/05/03 23:20:26;;;;;;;4.60;4.20;;;15.00;32.10;;;;;;10484830;28;20240;-67
2023/05/03 23:25:29;;;;;;;5.30;4.90;;;15.00;32.10;;;;;;10485530;28;20229;-67
2023/05/03 23:30:33;;;;;;;4.17;3.50;;;14.90;32.00;;;;;;10484461;28;20731;-68
2023/05/03 23:35:38;;;;;;;4.77;4.37;;;14.80;31.90;;;;;;10481861;28;20239;-68
2023/05/03 23:40:41;;;;;;;4.70;4.20;;;14.80;31.90;;;;;;10484428;28;20224;-68
2023/05/03 23:45:44;;;;;;;3.90;3.60;;;14.70;31.80;;;;;;10480408;28;20603;-68
2023/05/03 23:50:49;;;;;;;6.07;4.70;;;14.70;31.80;;;;;;10481506;28;20220;-68
2023/05/03 23:55:52;;;;;;;3.93;3.63;;;14.60;31.80;;;;;;10480633;28;20739;-68
